createdAt,value
2022-08-02T00:00:34.377Z,96328.81
2022-08-02T00:03:01.077Z,96319.44
2022-08-02T00:05:27.886Z,96315.38
2022-08-02T00:07:54.538Z,96331.06
2022-08-02T00:10:21.245Z,96331.25
2022-08-02T00:12:47.927Z,96330.44
2022-08-02T00:15:16.281Z,96331.88
2022-08-02T00:17:44.242Z,96335.75
2022-08-02T00:20:11.957Z,96330.03
2022-08-02T00:22:38.975Z,96335.34
2022-08-02T00:25:06.491Z,96335.75
2022-08-02T00:27:33.208Z,96329.25
2022-08-02T00:29:59.913Z,96332.50
2022-08-02T00:32:26.612Z,96329.63
2022-08-02T00:34:53.281Z,96328.63
2022-08-02T00:37:19.928Z,96324.75
2022-08-02T00:39:46.657Z,96326.16
2022-08-02T00:42:16.689Z,96322.69
2022-08-02T00:44:43.533Z,96315.38
2022-08-02T00:47:10.443Z,96312.94
2022-08-02T00:49:37.653Z,96308.09
2022-08-02T00:52:05.282Z,96302.97
2022-08-02T00:54:32.169Z,96308.09
2022-08-02T00:56:58.898Z,96309.31
2022-08-02T00:59:25.571Z,96307.91
2022-08-02T01:01:57.136Z,96297.94
2022-08-02T01:04:30.017Z,96297.09
2022-08-02T01:07:00.111Z,96301.59
2022-08-02T01:09:26.979Z,96302.38
2022-08-02T01:11:54.014Z,96295.88
2022-08-02T01:14:24.575Z,96294.44
2022-08-02T01:17:08.897Z,96286.31
2022-08-02T01:19:54.385Z,96289.59
2022-08-02T01:23:01.204Z,96292.22
2022-08-02T01:25:29.018Z,96292.41
2022-08-02T01:28:17.695Z,96301.78
2022-08-02T01:30:48.483Z,96306.47
2022-08-02T01:33:21.196Z,96306.25
2022-08-02T01:35:56.491Z,96305.44
2022-08-02T01:38:29.582Z,96308.88
2022-08-02T01:40:59.011Z,96307.66
2022-08-02T01:43:29.359Z,96305.63
2022-08-02T01:45:58.779Z,96302.97
2022-08-02T01:48:28.720Z,96308.25
2022-08-02T01:50:57.441Z,96304.81
2022-08-02T01:53:27.212Z,96312.88
2022-08-02T01:55:58.396Z,96315.13
2022-08-02T01:58:31.213Z,96314.09
2022-08-02T02:00:59.857Z,96312.69
2022-08-02T02:03:29.113Z,96314.09
2022-08-02T02:05:57.868Z,96309.44
2022-08-02T02:08:29.153Z,96313.56
2022-08-02T02:10:57.509Z,96316.78
2022-08-02T02:13:45.335Z,96316.19
2022-08-02T02:16:14.136Z,96320.69
2022-08-02T02:18:44.583Z,96317.84
2022-08-02T02:21:13.397Z,96311.13
2022-08-02T02:23:40.775Z,96317.84
2022-08-02T02:26:11.839Z,96315.19
2022-08-02T02:28:40.091Z,96316.41
2022-08-02T02:31:13.939Z,96320.69
2022-08-02T02:33:46.995Z,96321.91
2022-08-02T02:36:16.702Z,96311.72
2022-08-02T02:38:45.441Z,96317.41
2022-08-02T02:41:13.816Z,96317.59
2022-08-02T02:43:42.247Z,96312.88
2022-08-02T02:46:10.764Z,96301.91
2022-08-02T02:48:37.940Z,96321.22
2022-08-02T02:51:08.171Z,96311.84
2022-08-02T02:54:33.470Z,96320.41
2022-08-02T02:56:29.368Z,96318.97
2022-08-02T02:58:56.321Z,96316.13
2022-08-02T03:01:35.883Z,96296.38
2022-08-02T03:04:17.974Z,96299.22
2022-08-02T03:06:45.121Z,96295.38
2022-08-02T03:09:12.247Z,96311.97
2022-08-02T03:11:40.707Z,96309.06
2022-08-02T03:14:11.525Z,96309.00
2022-08-02T03:16:45.492Z,96318.44
2022-08-02T03:19:12.677Z,96316.94
2022-08-02T03:21:39.667Z,96319.50
2022-08-02T03:24:07.097Z,96315.91
2022-08-02T03:26:33.797Z,96309.06
2022-08-02T03:29:00.756Z,96312.53
2022-08-02T03:31:39.923Z,96319.69
2022-08-02T03:34:06.600Z,96329.03
2022-08-02T03:36:36.446Z,96325.56
2022-08-02T03:39:04.838Z,96326.19
2022-08-02T03:41:33.232Z,96324.78
2022-08-02T03:44:00.865Z,96324.00
2022-08-02T03:46:28.214Z,96319.34
2022-08-02T03:48:56.261Z,96318.50
2022-08-02T03:51:24.055Z,96319.50
2022-08-02T03:53:50.978Z,96323.41
2022-08-02T03:56:18.566Z,96326.03
2022-08-02T03:58:49.149Z,96321.16
2022-08-02T04:01:16.881Z,96321.34
2022-08-02T04:03:43.948Z,96325.38
2022-08-02T04:06:10.747Z,96326.81
2022-08-02T04:08:38.651Z,96324.72
2022-08-02T04:11:25.232Z,96328.19
2022-08-02T04:13:56.795Z,96334.94
2022-08-02T04:16:48.893Z,96344.09
2022-08-02T04:19:50.224Z,96348.00
2022-08-02T04:22:21.395Z,96339.88
2022-08-02T04:24:51.977Z,96350.25
2022-08-02T04:27:51.221Z,96344.94
2022-08-02T04:30:08.446Z,96350.00
2022-08-02T04:32:35.985Z,96350.78
2022-08-02T04:35:19.643Z,96358.25
2022-08-02T04:38:08.751Z,96351.38
2022-08-02T04:40:34.466Z,96365.88
2022-08-02T04:43:01.214Z,96365.88
2022-08-02T04:45:30.520Z,96360.19
2022-08-02T04:48:05.659Z,96371.00
2022-08-02T04:50:33.478Z,96363.78
2022-08-02T04:53:00.222Z,96375.16
2022-08-02T04:55:29.087Z,96368.28
2022-08-02T04:57:57.800Z,96368.06
2022-08-02T05:00:26.506Z,96369.09
2022-08-02T05:02:54.220Z,96373.59
2022-08-02T05:05:21.064Z,96367.50
2022-08-02T05:07:47.822Z,96375.00
2022-08-02T05:10:15.231Z,96376.44
2022-08-02T05:12:42.029Z,96368.91
2022-08-02T05:15:12.646Z,96374.38
2022-08-02T05:17:47.953Z,96371.78
2022-08-02T05:20:20.106Z,96372.59
2022-08-02T05:22:47.650Z,96378.50
2022-08-02T05:25:15.237Z,96367.94
2022-08-02T05:27:42.248Z,96368.31
2022-08-02T05:30:09.473Z,96365.06
2022-08-02T05:32:44.130Z,96367.84
2022-08-02T05:35:10.987Z,96369.06
2022-08-02T05:37:37.844Z,96360.03
2022-08-02T05:40:05.434Z,96366.56
2022-08-02T05:42:40.637Z,96366.13
2022-08-02T05:45:07.619Z,96371.44
2022-08-02T05:47:34.579Z,96369.38
2022-08-02T05:50:01.411Z,96361.19
2022-08-02T05:52:41.298Z,96367.63
2022-08-02T05:55:17.303Z,96374.06
2022-08-02T05:58:02.703Z,96372.56
2022-08-02T06:00:33.689Z,96382.75
2022-08-02T06:03:21.904Z,96382.13
2022-08-02T06:06:05.762Z,96385.97
2022-08-02T06:08:58.756Z,96389.41
2022-08-02T06:11:36.752Z,96385.47
2022-08-02T06:14:05.874Z,96388.06
2022-08-02T06:16:41.207Z,96394.22
2022-08-02T06:19:11.709Z,96396.25
2022-08-02T06:22:32.032Z,96398.75
2022-08-02T06:24:30.642Z,96403.59
2022-08-02T06:26:58.548Z,96387.03
2022-08-02T06:29:26.232Z,96397.16
2022-08-02T06:31:54.011Z,96391.25
2022-08-02T06:34:20.846Z,96391.50
2022-08-02T06:37:07.597Z,96389.88
2022-08-02T06:39:46.748Z,96393.56
2022-08-02T06:42:17.430Z,96387.97
2022-08-02T06:44:57.936Z,96391.06
2022-08-02T06:47:25.272Z,96402.97
2022-08-02T06:49:54.183Z,96401.25
2022-08-02T06:52:28.735Z,96406.22
2022-08-02T06:54:59.194Z,96397.53
2022-08-02T06:57:27.045Z,96401.63
2022-08-02T06:59:54.297Z,96405.19
2022-08-02T07:02:21.268Z,96392.56
2022-08-02T07:04:48.145Z,96392.81
2022-08-02T07:07:14.848Z,96396.56
2022-08-02T07:10:00.173Z,96387.91
2022-08-02T07:12:32.498Z,96387.41
2022-08-02T07:15:01.582Z,96391.44
2022-08-02T07:17:29.391Z,96381.81
2022-08-02T07:19:57.039Z,96373.31
2022-08-02T07:22:24.661Z,96371.34
2022-08-02T07:24:51.872Z,96374.78
2022-08-02T07:27:19.697Z,96372.81
2022-08-02T07:29:48.973Z,96359.34
2022-08-02T07:32:19.493Z,96363.28
2022-08-02T07:34:50.468Z,96352.78
2022-08-02T07:37:35.380Z,96358.28
2022-08-02T07:40:15.157Z,96355.22
2022-08-02T07:42:52.469Z,96357.66
2022-08-02T07:45:20.328Z,96348.19
2022-08-02T07:47:47.258Z,96344.56
2022-08-02T07:50:15.795Z,96342.59
2022-08-02T07:52:43.423Z,96344.44
2022-08-02T07:55:11.170Z,96341.78
2022-08-02T07:57:44.082Z,96340.78
2022-08-02T08:00:13.697Z,96323.19
2022-08-02T08:02:40.888Z,96333.03
2022-08-02T08:05:08.664Z,96332.13
2022-08-02T08:07:35.726Z,96328.81
2022-08-02T08:10:04.037Z,96333.00
2022-08-02T08:12:30.712Z,96333.59
2022-08-02T08:14:57.522Z,96339.88
2022-08-02T08:17:24.201Z,96328.81
2022-08-02T08:19:52.943Z,96335.41
2022-08-02T08:22:20.697Z,96341.94
2022-08-02T08:24:48.641Z,96344.81
2022-08-02T08:27:16.123Z,96336.28
2022-08-02T08:29:43.370Z,96336.50
2022-08-02T08:32:15.792Z,96339.13
2022-08-02T08:34:43.376Z,96342.41
2022-08-02T08:37:10.305Z,96340.09
2022-08-02T08:39:56.824Z,96336.50
2022-08-02T08:42:28.272Z,96339.16
2022-08-02T08:44:57.457Z,96339.00
2022-08-02T08:47:27.059Z,96346.72
2022-08-02T08:50:05.022Z,96334.09
2022-08-02T08:52:36.042Z,96334.09
2022-08-02T08:55:05.088Z,96329.22
2022-08-02T08:57:37.689Z,96325.00
2022-08-02T09:00:04.993Z,96332.31
2022-08-02T09:02:36.202Z,96323.13
2022-08-02T09:05:03.110Z,96323.09
2022-08-02T09:07:29.858Z,96314.75
2022-08-02T09:09:56.580Z,96312.22
2022-08-02T09:12:25.261Z,96313.09
2022-08-02T09:14:52.461Z,96308.75
2022-08-02T09:17:21.925Z,96310.75
2022-08-02T09:20:07.547Z,96308.69
2022-08-02T09:22:34.597Z,96321.31
2022-08-02T09:25:01.727Z,96311.31
2022-08-02T09:27:36.106Z,96319.38
2022-08-02T09:30:12.710Z,96330.16
2022-08-02T09:32:48.133Z,96331.44
2022-08-02T09:36:06.665Z,96326.41
2022-08-02T09:38:18.874Z,96324.28
2022-08-02T09:40:45.738Z,96315.72
2022-08-02T09:43:12.433Z,96316.06
2022-08-02T09:45:39.204Z,96314.09
2022-08-02T09:48:09.918Z,96320.09
2022-08-02T09:50:40.116Z,96317.22
2022-08-02T09:53:11.959Z,96312.44
2022-08-02T09:55:39.031Z,96312.88
2022-08-02T09:58:19.553Z,96308.91
2022-08-02T10:00:57.357Z,96305.69
2022-08-02T10:03:24.497Z,96301.03
2022-08-02T10:06:02.314Z,96301.53
2022-08-02T10:08:32.750Z,96308.91
2022-08-02T10:11:01.041Z,96305.13
2022-08-02T10:13:29.608Z,96306.72
2022-08-02T10:15:57.521Z,96302.56
2022-08-02T10:18:38.224Z,96294.53
2022-08-02T10:21:24.186Z,96295.31
2022-08-02T10:23:53.651Z,96298.63
2022-08-02T10:26:21.141Z,96297.91
2022-08-02T10:28:49.709Z,96304.03
2022-08-02T10:31:27.324Z,96302.75
2022-08-02T10:33:58.656Z,96298.00
2022-08-02T10:36:27.413Z,96288.47
2022-08-02T10:38:56.183Z,96287.91
2022-08-02T10:41:42.054Z,96293.19
2022-08-02T10:44:24.171Z,96296.06
2022-08-02T10:46:53.184Z,96298.22
2022-08-02T10:52:09.541Z,96297.19
2022-08-02T10:54:42.688Z,96286.22
2022-08-02T10:57:24.124Z,96294.19
2022-08-02T10:59:55.431Z,96289.19
2022-08-02T11:02:47.143Z,96289.75
2022-08-02T11:05:43.503Z,96287.44
2022-08-02T11:08:18.463Z,96285.38
2022-08-02T11:10:45.265Z,96291.41
2022-08-02T11:13:19.847Z,96283.88
2022-08-02T11:16:11.291Z,96285.75
2022-08-02T11:18:44.266Z,96281.16
2022-08-02T11:21:28.648Z,96275.78
2022-08-02T11:23:56.179Z,96276.41
2022-08-02T11:26:31.722Z,96275.69
2022-08-02T11:29:00.452Z,96270.34
2022-08-02T11:31:28.339Z,96271.28
2022-08-02T11:33:56.086Z,96262.78
2022-08-02T11:36:23.081Z,96263.44
2022-08-02T11:38:50.081Z,96270.78
2022-08-02T11:41:46.149Z,96264.63
2022-08-02T11:44:10.458Z,96258.56
2022-08-02T11:46:37.462Z,96258.56
2022-08-02T11:49:18.445Z,96251.97
2022-08-02T11:51:57.840Z,96251.63
2022-08-02T11:54:35.997Z,96248.75
2022-08-02T11:57:20.893Z,96258.72
2022-08-02T11:59:50.330Z,96254.31
2022-08-02T12:02:18.792Z,96240.31
2022-08-02T12:04:58.961Z,96234.66
2022-08-02T12:07:34.330Z,96232.16
2022-08-02T12:10:11.595Z,96231.13
2022-08-02T12:12:57.978Z,96239.63
2022-08-02T12:15:44.730Z,96229.41
2022-08-02T12:18:31.604Z,96229.03
2022-08-02T12:20:58.721Z,96229.44
2022-08-02T12:23:26.815Z,96226.13
2022-08-02T12:26:00.508Z,96221.16
2022-08-02T12:28:27.379Z,96220.34
2022-08-02T12:30:58.241Z,96221.28
2022-08-02T12:33:27.671Z,96209.63
2022-08-02T12:35:55.025Z,96221.84
2022-08-02T12:38:22.116Z,96221.22
2022-08-02T12:40:49.521Z,96222.97
2022-08-02T12:43:19.579Z,96225.63
2022-08-02T12:45:49.743Z,96224.75
2022-08-02T12:48:17.900Z,96228.16
2022-08-02T12:50:45.088Z,96231.63
2022-08-02T12:53:17.135Z,96232.97
2022-08-02T12:56:01.845Z,96225.78
2022-08-02T12:58:31.783Z,96224.53
2022-08-02T13:01:01.157Z,96220.66
2022-08-02T13:04:07.827Z,96226.41
2022-08-02T13:06:41.320Z,96228.69
2022-08-02T13:09:12.629Z,96221.31
2022-08-02T13:11:43.390Z,96219.47
2022-08-02T13:14:11.881Z,96212.38
2022-08-02T13:16:38.690Z,96213.22
2022-08-02T13:19:05.536Z,96211.13
2022-08-02T13:21:41.052Z,96211.72
2022-08-02T13:24:38.517Z,96208.19
2022-08-02T13:27:08.737Z,96209.34
2022-08-02T13:29:37.766Z,96207.41
2022-08-02T13:32:04.686Z,96200.34
2022-08-02T13:34:31.390Z,96198.44
2022-08-02T13:36:58.932Z,96196.63
2022-08-02T13:39:25.778Z,96191.22
2022-08-02T13:41:52.865Z,96191.78
2022-08-02T13:44:19.675Z,96187.69
2022-08-02T13:46:46.441Z,96173.28
2022-08-02T13:49:18.456Z,96173.75
2022-08-02T13:51:47.765Z,96151.84
2022-08-02T13:54:15.556Z,96178.03
2022-08-02T13:56:42.550Z,96182.28
2022-08-02T13:59:57.456Z,96179.34
2022-08-02T14:01:57.285Z,96177.03
2022-08-02T14:04:24.865Z,96177.38
2022-08-02T14:06:51.850Z,96168.44
2022-08-02T14:09:18.838Z,96167.34
2022-08-02T14:11:46.881Z,96159.81
2022-08-02T14:14:16.643Z,96165.50
2022-08-02T14:16:44.393Z,96161.78
2022-08-02T14:19:16.648Z,96164.66
2022-08-02T14:21:46.798Z,96160.78
2022-08-02T14:24:21.595Z,96162.97
2022-08-02T14:26:48.709Z,96164.91
2022-08-02T14:29:16.329Z,96160.03
2022-08-02T14:31:44.977Z,96164.63
2022-08-02T14:34:13.086Z,96162.97
2022-08-02T14:36:39.797Z,96166.75
2022-08-02T14:39:07.092Z,96161.13
2022-08-02T14:41:59.493Z,96160.63
2022-08-02T14:44:24.031Z,96165.56
2022-08-02T14:46:51.344Z,96154.00
2022-08-02T14:49:25.484Z,96157.47
2022-08-02T14:51:55.134Z,96161.47
2022-08-02T14:54:33.314Z,96160.97
2022-08-02T14:57:03.287Z,96151.31
2022-08-02T14:59:30.889Z,96151.97
2022-08-02T15:01:58.782Z,96158.72
2022-08-02T15:04:26.002Z,96156.25
2022-08-02T15:06:53.178Z,96155.28
2022-08-02T15:09:20.243Z,96159.06
2022-08-02T15:11:49.124Z,96161.56
2022-08-02T15:14:21.804Z,96155.38
2022-08-02T15:16:57.152Z,96142.22
2022-08-02T15:19:37.728Z,96147.34
2022-08-02T15:22:15.756Z,96150.91
2022-08-02T15:24:45.010Z,96143.44
2022-08-02T15:27:14.406Z,96145.94
2022-08-02T15:29:42.893Z,96141.59
2022-08-02T15:32:09.952Z,96143.44
2022-08-02T15:34:37.091Z,96140.66
2022-08-02T15:37:03.969Z,96138.22
2022-08-02T15:39:30.760Z,96133.97
2022-08-02T15:41:57.604Z,96138.88
2022-08-02T15:44:25.139Z,96137.53
2022-08-02T15:46:53.392Z,96135.66
2022-08-02T15:49:23.644Z,96142.88
2022-08-02T15:51:52.067Z,96131.63
2022-08-02T15:54:19.116Z,96132.41
2022-08-02T15:56:46.744Z,96129.19
2022-08-02T15:59:13.688Z,96128.09
2022-08-02T16:01:44.867Z,96129.69
2022-08-02T16:04:14.498Z,96130.03
2022-08-02T16:06:41.208Z,96128.44
2022-08-02T16:09:07.977Z,96134.16
2022-08-02T16:11:34.638Z,96129.59
2022-08-02T16:14:01.505Z,96133.09
2022-08-02T16:16:31.229Z,96132.81
2022-08-02T16:18:58.506Z,96138.69
2022-08-02T16:21:25.562Z,96130.34
2022-08-02T16:24:01.715Z,96132.91
2022-08-02T16:26:34.336Z,96135.56
2022-08-02T16:29:03.038Z,96134.25
2022-08-02T16:31:30.204Z,96132.09
2022-08-02T16:33:57.611Z,96137.47
2022-08-02T16:36:25.749Z,96137.47
2022-08-02T16:38:53.938Z,96133.19
2022-08-02T16:41:22.986Z,96125.72
2022-08-02T16:43:50.248Z,96118.25
2022-08-02T16:46:17.037Z,96121.53
2022-08-02T16:48:51.205Z,96125.88
2022-08-02T16:51:19.173Z,96123.22
2022-08-02T16:54:00.555Z,96117.31
2022-08-02T16:56:28.799Z,96122.47
2022-08-02T16:58:59.447Z,96119.75
2022-08-02T17:02:01.892Z,96127.53
2022-08-02T17:04:15.588Z,96126.47
2022-08-02T17:06:47.554Z,96125.66
2022-08-02T17:10:01.948Z,96125.97
2022-08-02T17:12:08.313Z,96124.09
2022-08-02T17:17:34.231Z,96129.50
2022-08-02T17:20:02.687Z,96138.63
2022-08-02T17:22:29.412Z,96139.69
2022-08-02T17:24:56.477Z,96127.88
2022-08-02T17:27:26.251Z,96148.31
2022-08-02T17:29:53.488Z,96140.50
2022-08-02T17:32:20.383Z,96137.28
2022-08-02T17:34:48.899Z,96135.94
2022-08-02T17:37:23.462Z,96144.81
2022-08-02T17:42:36.889Z,96141.06
2022-08-02T17:45:17.125Z,96150.25
2022-08-02T17:48:04.505Z,96153.47
2022-08-02T17:50:35.305Z,96150.53
2022-08-02T17:53:03.910Z,96150.22
2022-08-02T17:55:31.181Z,96153.44
2022-08-02T17:57:59.290Z,96151.03
2022-08-02T18:00:36.932Z,96149.44
2022-08-02T18:03:09.783Z,96153.19
2022-08-02T18:05:40.006Z,96150.25
2022-08-02T18:08:21.614Z,96150.75
2022-08-02T18:10:50.453Z,96148.88
2022-08-02T18:13:17.104Z,96147.00
2022-08-02T18:15:45.737Z,96148.09
2022-08-02T18:18:14.419Z,96148.88
2022-08-02T18:20:41.421Z,96146.47
2022-08-02T18:23:10.898Z,96156.97
2022-08-02T18:25:44.248Z,96154.00
2022-08-02T18:28:13.846Z,96159.38
2022-08-02T18:30:40.860Z,96160.72
2022-08-02T18:33:59.212Z,96151.56
2022-08-02T18:35:56.453Z,96150.78
2022-08-02T18:38:26.724Z,96153.44
2022-08-02T18:40:54.898Z,96155.31
2022-08-02T18:43:25.378Z,96155.28
2022-08-02T18:46:05.974Z,96162.25
2022-08-02T18:48:44.217Z,96158.22
2022-08-02T18:51:18.919Z,96163.56
2022-08-02T18:53:55.689Z,96158.47
2022-08-02T18:56:25.176Z,96169.16
2022-08-02T18:58:55.919Z,96174.53
2022-08-02T19:01:32.529Z,96169.09
2022-08-02T19:04:05.263Z,96172.00
2022-08-02T19:06:36.368Z,96174.09
2022-08-02T19:09:13.183Z,96176.16
2022-08-02T19:11:48.200Z,96176.94
2022-08-02T19:14:27.618Z,96178.28
2022-08-02T19:17:15.907Z,96177.44
2022-08-02T19:19:48.896Z,96184.13
2022-08-02T19:22:22.455Z,96185.66
2022-08-02T19:25:01.276Z,96184.25
2022-08-02T19:27:40.003Z,96189.88
2022-08-02T19:30:17.224Z,96186.06
2022-08-02T19:32:59.448Z,96193.75
2022-08-02T19:35:34.465Z,96194.50
2022-08-02T19:38:14.259Z,96196.53
2022-08-02T19:40:42.358Z,96200.69
2022-08-02T19:44:23.729Z,96198.19
2022-08-02T19:46:33.117Z,96202.13
2022-08-02T19:49:17.017Z,96200.72
2022-08-02T19:54:55.255Z,96203.19
2022-08-02T19:57:25.159Z,96199.84
2022-08-02T19:59:54.171Z,96197.44
2022-08-02T20:02:23.990Z,96204.06
2022-08-02T20:04:55.165Z,96210.47
2022-08-02T20:07:49.839Z,96211.25
2022-08-02T20:10:13.973Z,96213.63
2022-08-02T20:12:51.209Z,96214.94
2022-08-02T20:15:20.968Z,96206.91
2022-08-02T20:17:51.526Z,96208.53
2022-08-02T20:20:23.606Z,96212.31
2022-08-02T20:23:33.705Z,96211.88
2022-08-02T20:26:05.829Z,96212.16
2022-08-02T20:28:36.651Z,96212.16
2022-08-02T20:31:07.102Z,96217.38
2022-08-02T20:33:55.800Z,96209.03
2022-08-02T20:36:25.650Z,96211.28
2022-08-02T20:38:55.629Z,96205.34
2022-08-02T20:41:37.288Z,96208.59
2022-08-02T20:44:15.484Z,96209.97
2022-08-02T20:46:59.650Z,96207.81
2022-08-02T20:49:40.822Z,96217.94
2022-08-02T20:54:56.784Z,96217.84
2022-08-02T20:57:48.861Z,96216.47
2022-08-02T21:00:15.619Z,96214.31
2022-08-02T21:02:43.323Z,96216.44
2022-08-02T21:05:18.422Z,96215.59
2022-08-02T21:07:53.409Z,96220.94
2022-08-02T21:10:31.829Z,96217.47
2022-08-02T21:13:00.654Z,96221.69
2022-08-02T21:18:49.972Z,96214.56
2022-08-02T21:21:19.846Z,96205.91
2022-08-02T21:23:54.467Z,96205.25
2022-08-02T21:26:30.395Z,96200.97
2022-08-02T21:29:03.091Z,96205.22
2022-08-02T21:31:36.629Z,96209.34
2022-08-02T21:34:22.476Z,96203.91
2022-08-02T21:36:55.902Z,96203.84
2022-08-02T21:39:24.382Z,96208.75
2022-08-02T21:41:53.724Z,96206.91
2022-08-02T21:44:23.151Z,96199.97
2022-08-02T21:46:55.196Z,96204.25
2022-08-02T21:49:40.659Z,96207.50
2022-08-02T21:52:14.302Z,96209.66
2022-08-02T21:54:46.000Z,96207.44
2022-08-02T21:57:18.800Z,96207.19
2022-08-02T21:59:48.741Z,96209.31
2022-08-02T22:02:30.742Z,96211.75
2022-08-02T22:05:02.630Z,96207.13
2022-08-02T22:07:38.352Z,96213.66
2022-08-02T22:10:09.596Z,96215.81
2022-08-02T22:12:37.359Z,96207.81
2022-08-02T22:15:11.779Z,96210.41
2022-08-02T22:17:53.446Z,96208.31
2022-08-02T22:20:29.243Z,96209.44
2022-08-02T22:22:57.690Z,96207.97
2022-08-02T22:25:36.811Z,96214.91
2022-08-02T22:28:38.617Z,96220.63
2022-08-02T22:31:05.020Z,96231.38
2022-08-02T22:34:00.135Z,96222.41
2022-08-02T22:36:30.226Z,96214.41
2022-08-02T22:39:02.141Z,96223.94
2022-08-02T22:42:01.553Z,96226.03
2022-08-02T22:44:23.626Z,96227.47
2022-08-02T22:46:52.517Z,96232.56
2022-08-02T22:49:38.657Z,96231.66
2022-08-02T22:52:14.248Z,96227.47
2022-08-02T22:54:45.168Z,96231.66
2022-08-02T22:57:16.554Z,96228.19
2022-08-02T22:58:39.641Z,96140.00
2022-08-02T22:58:49.728Z,96130.53
2022-08-02T22:59:05.500Z,96200.38
2022-08-02T22:59:06.306Z,96211.44
2022-08-02T22:59:10.424Z,96215.94
2022-08-02T22:59:56.529Z,96226.28
2022-08-02T23:02:26.589Z,96224.75
2022-08-02T23:04:53.911Z,96231.13
2022-08-02T23:07:21.595Z,96230.44
2022-08-02T23:09:51.219Z,96227.91
2022-08-02T23:12:22.829Z,96234.09
2022-08-02T23:14:58.516Z,96229.13
2022-08-02T23:17:46.132Z,96225.41
2022-08-02T23:20:14.732Z,96229.91
2022-08-02T23:22:42.551Z,96218.31
2022-08-02T23:25:13.580Z,96223.44
2022-08-02T23:27:49.892Z,96219.59
2022-08-02T23:30:21.371Z,96220.56
2022-08-02T23:32:53.260Z,96224.50
2022-08-02T23:35:22.027Z,96216.28
2022-08-02T23:37:59.379Z,96221.69
2022-08-02T23:40:40.719Z,96221.81
2022-08-02T23:43:13.715Z,96227.97
2022-08-02T23:45:47.804Z,96222.50
2022-08-02T23:48:20.420Z,96215.91
2022-08-02T23:50:55.953Z,96216.03
2022-08-02T23:53:25.044Z,96217.41
2022-08-02T23:55:53.060Z,96206.31
2022-08-02T23:58:25.007Z,96212.31
